Time;durP1;ratioP1;P1;durP2;ratioP2;P2;SDS_P1;SDS_P2;PMS_P1;PMS_P2;Temp;Humidity;BMP_temperature;BMP_pressure;BME280_temperature;BME280_humidity;BME280_pressure;Samples;Min_cycle;Max_cycle;Signal;HPM_P1;HPM_P2
2022/08/21 00:02:01;;;;;;;11.32;6.45;;;16.00;99.90;;;;;;5051482;28;20036;-47
2022/08/21 00:04:29;;;;;;;8.38;4.38;;;16.00;99.90;;;;;;5051272;28;20051;-47
2022/08/21 00:06:56;;;;;;;;;;;16.00;99.90;;;;;;5050064;28;20051;-49
2022/08/21 00:09:23;;;;;;;5.45;2.78;;;16.00;99.90;;;;;;5051574;28;19920;-47
2022/08/21 00:11:50;;;;;;;4.00;2.50;;;16.00;99.90;;;;;;5051558;28;20500;-47
2022/08/21 00:14:17;;;;;;;5.15;2.53;;;16.00;99.90;;;;;;5050522;28;20205;-47
2022/08/21 00:16:43;;;;;;;5.35;2.78;;;16.00;99.90;;;;;;5051089;28;20033;-48
2022/08/21 00:19:10;;;;;;;4.35;2.67;;;15.90;99.90;;;;;;5051409;28;20044;-47
2022/08/21 00:21:37;;;;;;;6.40;3.03;;;15.90;99.90;;;;;;5051525;28;20098;-46
2022/08/21 00:24:04;;;;;;;6.47;2.15;;;15.90;99.90;;;;;;5051083;28;20455;-47
2022/08/21 00:26:33;;;;;;;3.80;2.90;;;15.90;99.90;;;;;;5047489;28;20044;-47
2022/08/21 00:29:00;;;;;;;;;;;15.90;99.90;;;;;;5051533;28;20033;-47
2022/08/21 00:31:27;;;;;;;5.03;2.20;;;15.90;99.90;;;;;;5051414;28;19928;-47
2022/08/21 00:33:54;;;;;;;5.72;2.72;;;15.90;99.90;;;;;;5050705;28;20033;-47
2022/08/21 00:36:27;;;;;;;6.10;2.97;;;15.90;99.90;;;;;;5051121;28;20060;-47
2022/08/21 00:38:54;;;;;;;5.05;3.45;;;15.90;99.90;;;;;;5051752;28;20382;-47
2022/08/21 00:41:22;;;;;;;4.97;3.10;;;15.90;99.90;;;;;;5053783;28;20041;-49
2022/08/21 00:44:07;;;;;;;5.95;3.45;;;15.90;99.90;;;;;;5050519;28;20044;-47
2022/08/21 00:46:35;;;;;;;5.20;3.47;;;15.90;99.90;;;;;;5049408;28;20056;-49
2022/08/21 00:49:04;;;;;;;5.40;3.55;;;15.90;99.90;;;;;;5050867;28;20072;-47
2022/08/21 00:51:55;;;;;;;8.52;3.30;;;15.90;99.90;;;;;;5048293;28;20049;-47
2022/08/21 00:54:25;;;;;;;10.13;4.05;;;15.90;99.90;;;;;;5050577;28;20087;-46
2022/08/21 00:56:58;;;;;;;5.32;3.40;;;15.90;99.90;;;;;;5043990;28;20052;-47
2022/08/21 00:59:29;;;;;;;5.07;3.40;;;16.00;99.90;;;;;;5050600;28;20057;-47
2022/08/21 01:01:55;;;;;;;4.40;2.75;;;15.90;99.90;;;;;;5051086;28;20052;-47
2022/08/21 01:04:22;;;;;;;5.38;3.28;;;15.90;99.90;;;;;;5048243;28;20620;-49
2022/08/21 01:06:51;;;;;;;6.88;3.88;;;15.90;99.90;;;;;;5048987;28;20477;-48
2022/08/21 01:09:18;;;;;;;5.97;3.67;;;15.90;99.90;;;;;;5049521;28;20049;-47
2022/08/21 01:11:45;;;;;;;7.22;4.97;;;15.90;99.90;;;;;;5045216;28;20106;-47
2022/08/21 01:14:14;;;;;;;10.30;5.18;;;15.90;99.90;;;;;;5042148;28;20096;-47
2022/08/21 01:16:44;;;;;;;6.43;3.75;;;16.00;99.90;;;;;;5049720;28;20049;-47
2022/08/21 01:19:13;;;;;;;7.07;4.78;;;16.00;99.90;;;;;;5050122;28;20128;-49
2022/08/21 01:21:41;;;;;;;7.00;4.13;;;16.00;99.90;;;;;;5046201;28;20393;-48
2022/08/21 01:24:10;;;;;;;6.65;4.55;;;16.00;99.90;;;;;;5048228;28;20036;-52
2022/08/21 01:26:37;;;;;;;6.45;4.20;;;16.00;99.90;;;;;;5046205;28;20207;-50
2022/08/21 01:29:30;;;;;;;5.68;3.45;;;16.00;99.90;;;;;;5047930;28;20033;-47
2022/08/21 01:31:58;;;;;;;5.88;3.35;;;16.00;99.90;;;;;;5041681;28;20509;-45
2022/08/21 01:34:25;;;;;;;10.55;4.57;;;16.00;99.90;;;;;;5049974;28;20045;-47
2022/08/21 01:36:52;;;;;;;6.60;3.80;;;16.00;99.90;;;;;;5050793;28;20041;-48
2022/08/21 01:39:19;;;;;;;6.90;4.43;;;16.00;99.90;;;;;;5046299;28;20116;-47
2022/08/21 01:41:46;;;;;;;9.52;4.43;;;16.00;99.90;;;;;;5048092;28;20055;-47
2022/08/21 01:44:13;;;;;;;6.70;4.60;;;16.00;99.90;;;;;;5050329;28;20436;-48
2022/08/21 01:46:39;;;;;;;6.45;4.78;;;16.00;99.90;;;;;;5048194;28;20048;-47
2022/08/21 01:49:06;;;;;;;6.93;4.68;;;16.00;99.90;;;;;;5050265;28;20033;-47
2022/08/21 01:51:33;;;;;;;8.57;5.07;;;16.10;99.90;;;;;;5049920;28;20041;-47
2022/08/21 01:54:00;;;;;;;7.00;4.88;;;16.10;99.90;;;;;;5050197;28;20390;-47
2022/08/21 01:56:27;;;;;;;8.88;5.53;;;16.10;99.90;;;;;;5046156;28;20045;-48
2022/08/21 01:58:55;;;;;;;7.45;4.47;;;16.10;99.90;;;;;;5048283;28;20040;-48
2022/08/21 02:01:21;;;;;;;7.95;4.97;;;16.10;99.90;;;;;;5050444;28;20041;-46
2022/08/21 02:03:48;;;;;;;6.63;4.95;;;16.20;99.90;;;;;;5047417;28;20045;-47
2022/08/21 02:06:17;;;;;;;8.98;5.00;;;16.20;99.90;;;;;;5044903;28;20497;-46
2022/08/21 02:08:46;;;;;;;5.30;4.13;;;16.20;99.90;;;;;;5038218;28;20029;-46
2022/08/21 02:11:12;;;;;;;6.82;3.75;;;16.20;99.90;;;;;;5049801;28;20044;-47
2022/08/21 02:13:39;;;;;;;5.80;3.63;;;16.10;99.90;;;;;;5049318;28;20041;-47
2022/08/21 02:16:07;;;;;;;6.00;3.85;;;16.10;99.90;;;;;;5049611;28;20037;-47
2022/08/21 02:18:34;;;;;;;4.82;3.70;;;16.10;99.90;;;;;;5050310;28;20063;-47
2022/08/21 02:21:02;;;;;;;;;;;16.10;99.90;;;;;;5050116;28;20049;-47
2022/08/21 02:23:29;;;;;;;5.60;3.80;;;16.10;99.90;;;;;;5065275;28;19929;-48
2022/08/21 02:25:58;;;;;;;4.50;3.58;;;16.10;99.90;;;;;;5050236;28;20505;-47
2022/08/21 02:28:25;;;;;;;8.07;4.25;;;16.10;99.90;;;;;;5041879;28;20045;-47
2022/08/21 02:30:55;;;;;;;5.30;3.47;;;16.10;99.90;;;;;;5046590;28;20041;-47
2022/08/21 02:33:23;;;;;;;5.25;3.28;;;16.00;99.90;;;;;;5047790;28;20045;-47
2022/08/21 02:35:51;;;;;;;8.48;4.18;;;16.00;99.90;;;;;;5052883;28;20090;-46
2022/08/21 02:38:22;;;;;;;5.22;3.05;;;16.00;99.90;;;;;;5053783;28;20052;-47
2022/08/21 02:40:50;;;;;;;5.03;2.97;;;16.00;99.90;;;;;;5053681;28;20404;-47
2022/08/21 02:43:19;;;;;;;4.13;3.17;;;16.00;99.90;;;;;;5054121;28;20037;-46
2022/08/21 02:45:47;;;;;;;5.25;3.40;;;15.90;99.90;;;;;;5049099;28;20432;-46
2022/08/21 02:48:23;;;;;;;4.95;3.28;;;15.90;99.90;;;;;;5075365;22;20036;-49
2022/08/21 02:51:06;;;;;;;5.97;3.10;;;15.90;99.90;;;;;;5078730;28;20040;-46
2022/08/21 02:53:34;;;;;;;3.92;3.13;;;15.90;99.90;;;;;;5095244;28;20051;-48
2022/08/21 02:56:03;;;;;;;4.85;3.83;;;15.90;99.90;;;;;;5114398;28;20039;-52
2022/08/21 02:58:42;;;;;;;5.72;4.03;;;15.90;99.90;;;;;;5096223;28;20058;-48
2022/08/21 03:01:10;;;;;;;5.47;3.58;;;15.90;99.90;;;;;;5059214;28;20381;-50
2022/08/21 03:03:40;;;;;;;5.40;4.05;;;16.00;99.90;;;;;;5092039;28;20146;-50
2022/08/21 03:06:46;;;;;;;4.88;3.50;;;16.00;99.90;;;;;;5071649;28;20116;-49
2022/08/21 03:09:13;;;;;;;4.53;3.55;;;15.90;99.90;;;;;;5073260;28;20038;-48
2022/08/21 03:11:39;;;;;;;5.15;3.38;;;16.00;99.90;;;;;;5094090;28;20047;-49
2022/08/21 03:14:06;;;;;;;5.13;3.95;;;16.00;99.90;;;;;;5068502;28;20048;-49
2022/08/21 03:16:33;;;;;;;5.05;2.78;;;16.00;99.90;;;;;;5094038;28;20525;-52
2022/08/21 03:19:02;;;;;;;7.85;2.83;;;15.90;99.90;;;;;;5092596;28;20044;-51
2022/08/21 03:21:28;;;;;;;4.07;3.20;;;15.90;99.90;;;;;;5093996;28;20094;-52
2022/08/21 03:23:55;;;;;;;5.40;3.13;;;15.90;99.90;;;;;;5078484;28;20435;-50
2022/08/21 03:26:22;;;;;;;4.10;3.05;;;15.90;99.90;;;;;;5074530;28;20093;-50
2022/08/21 03:28:50;;;;;;;3.33;2.65;;;15.90;99.90;;;;;;5093280;28;20058;-50
2022/08/21 03:31:17;;;;;;;2.45;2.10;;;15.80;99.90;;;;;;5093768;28;20036;-49
2022/08/21 03:33:44;;;;;;;1.85;1.65;;;15.80;99.90;;;;;;5079672;28;20036;-50
2022/08/21 03:36:12;;;;;;;2.25;1.83;;;15.70;99.90;;;;;;5093369;28;20039;-51
2022/08/21 03:38:39;;;;;;;4.22;2.13;;;15.70;99.90;;;;;;5089042;28;20093;-52
2022/08/21 03:41:07;;;;;;;3.53;2.03;;;15.70;99.90;;;;;;5093544;28;20055;-51
2022/08/21 03:43:34;;;;;;;3.03;2.00;;;15.70;99.90;;;;;;5092015;28;20040;-48
2022/08/21 03:46:03;;;;;;;3.42;1.95;;;15.70;99.90;;;;;;5092779;28;20488;-51
2022/08/21 03:48:30;;;;;;;3.45;1.48;;;15.60;99.90;;;;;;5073148;28;20041;-49
2022/08/21 03:50:57;;;;;;;2.20;1.80;;;15.60;99.90;;;;;;5068514;28;20033;-50
2022/08/21 03:53:25;;;;;;;2.20;1.52;;;15.50;99.90;;;;;;5073171;28;20105;-51
2022/08/21 03:55:52;;;;;;;2.88;1.67;;;15.50;99.90;;;;;;5070956;28;20040;-50
2022/08/21 03:58:26;;;;;;;3.28;2.05;;;15.60;99.90;;;;;;5092886;28;20078;-51
2022/08/21 04:00:56;;;;;;;5.75;3.60;;;15.60;99.90;;;;;;5092473;28;20040;-52
2022/08/21 04:03:24;;;;;;;9.00;4.30;;;15.60;99.90;;;;;;5092730;28;20040;-51
2022/08/21 04:05:51;;;;;;;6.10;4.35;;;15.70;99.90;;;;;;5063030;28;20060;-50
2022/08/21 04:08:18;;;;;;;4.25;2.97;;;15.80;99.90;;;;;;5070923;28;20060;-51
2022/08/21 04:10:47;;;;;;;;;;;15.70;99.90;;;;;;5076701;28;20044;-51
2022/08/21 04:13:14;;;;;;;4.72;3.25;;;15.70;99.90;;;;;;5092661;28;20338;-51
2022/08/21 04:15:41;;;;;;;3.53;2.60;;;15.60;99.90;;;;;;5092087;28;20496;-49
2022/08/21 04:18:08;;;;;;;3.67;2.95;;;15.60;99.90;;;;;;5092871;28;20408;-49
2022/08/21 04:20:35;;;;;;;4.32;3.00;;;15.60;99.90;;;;;;5077954;28;20044;-52
2022/08/21 04:23:03;;;;;;;3.97;2.70;;;15.60;99.90;;;;;;5064075;28;20048;-48
2022/08/21 04:25:30;;;;;;;4.95;3.13;;;15.60;99.90;;;;;;5071907;28;20051;-48
2022/08/21 04:27:57;;;;;;;5.38;3.50;;;15.60;99.90;;;;;;5076854;28;20510;-49
2022/08/21 04:30:24;;;;;;;2.30;2.10;;;15.60;99.90;;;;;;5092490;28;20044;-48
2022/08/21 04:32:56;;;;;;;3.85;2.42;;;15.50;99.90;;;;;;5092298;28;20055;-48
2022/08/21 04:35:26;;;;;;;8.18;4.40;;;15.40;99.90;;;;;;5092131;28;20043;-48
2022/08/21 04:37:53;;;;;;;5.45;3.95;;;15.50;99.90;;;;;;5067325;28;20064;-48
2022/08/21 04:40:23;;;;;;;4.70;3.30;;;15.50;99.90;;;;;;5080171;28;20067;-48
2022/08/21 04:42:57;;;;;;;3.65;2.83;;;15.50;99.90;;;;;;5076929;28;20048;-48
2022/08/21 04:45:34;;;;;;;2.80;2.05;;;15.60;99.90;;;;;;5071343;28;20075;-49
2022/08/21 04:48:03;;;;;;;5.15;2.45;;;15.40;99.90;;;;;;5068970;28;20530;-48
2022/08/21 04:50:49;;;;;;;7.10;2.35;;;15.30;99.90;;;;;;5088639;28;20542;-47
2022/08/21 04:53:24;;;;;;;3.90;1.88;;;15.30;99.90;;;;;;5071421;28;20047;-48
2022/08/21 04:55:53;;;;;;;2.78;2.38;;;15.30;99.90;;;;;;5073039;28;20097;-48
2022/08/21 04:58:22;;;;;;;2.05;1.85;;;15.30;99.90;;;;;;5090941;28;20051;-48
2022/08/21 05:00:51;;;;;;;2.13;1.73;;;15.30;99.90;;;;;;5079359;28;20492;-49
2022/08/21 05:03:18;;;;;;;1.70;1.60;;;15.30;99.90;;;;;;5087966;28;20051;-49
2022/08/21 05:05:45;;;;;;;3.25;2.25;;;15.30;99.90;;;;;;5090697;28;20051;-48
2022/08/21 05:08:15;;;;;;;4.47;1.80;;;15.30;99.90;;;;;;5091969;28;20044;-48
2022/08/21 05:10:44;;;;;;;2.03;1.80;;;15.30;99.90;;;;;;5075363;28;20427;-48
2022/08/21 05:13:12;;;;;;;2.05;1.67;;;15.30;99.90;;;;;;5085703;28;20047;-48
2022/08/21 05:15:40;;;;;;;3.53;1.75;;;15.30;99.90;;;;;;5090902;28;20066;-49
2022/08/21 05:18:06;;;;;;;4.18;2.47;;;15.30;99.90;;;;;;5091730;28;20462;-48
2022/08/21 05:20:34;;;;;;;3.08;2.55;;;15.30;99.90;;;;;;5056197;28;20052;-48
2022/08/21 05:23:07;;;;;;;2.33;1.70;;;15.40;99.90;;;;;;5082498;28;20074;-49
2022/08/21 05:25:34;;;;;;;2.83;1.65;;;15.40;99.90;;;;;;5074647;28;20040;-47
2022/08/21 05:28:01;;;;;;;;;;;15.30;99.90;;;;;;5083988;28;20036;-49
2022/08/21 05:30:28;;;;;;;2.25;1.35;;;15.40;99.90;;;;;;5074262;28;20517;-47
2022/08/21 05:33:00;;;;;;;2.00;1.80;;;15.50;99.90;;;;;;5090964;28;20047;-48
2022/08/21 05:35:28;;;;;;;1.70;1.60;;;15.50;99.90;;;;;;5090131;28;20028;-48
2022/08/21 05:37:55;;;;;;;3.95;1.90;;;15.60;99.90;;;;;;5078602;28;20055;-48
2022/08/21 05:40:23;;;;;;;2.55;1.65;;;15.60;99.90;;;;;;5063555;28;20040;-48
2022/08/21 05:42:51;;;;;;;2.63;1.98;;;15.60;99.90;;;;;;5088171;28;20036;-48
2022/08/21 05:45:26;;;;;;;3.35;1.90;;;15.60;99.90;;;;;;5087245;28;20051;-46
2022/08/21 05:48:18;;;;;;;2.22;1.70;;;15.60;99.90;;;;;;5090324;28;20704;-48
2022/08/21 05:50:47;;;;;;;2.30;1.95;;;15.60;99.90;;;;;;5091477;28;20041;-48
2022/08/21 05:53:15;;;;;;;4.10;2.10;;;15.60;99.90;;;;;;5072796;28;20440;-48
2022/08/21 05:55:43;;;;;;;3.53;1.83;;;15.60;99.90;;;;;;5064041;28;20048;-48
2022/08/21 05:58:14;;;;;;;5.22;2.10;;;15.60;99.90;;;;;;5070961;28;20052;-48
2022/08/21 06:00:41;;;;;;;2.90;2.10;;;15.70;99.90;;;;;;5069027;28;20041;-49
2022/08/21 06:03:36;;;;;;;2.80;2.03;;;15.90;99.90;;;;;;5091167;28;20070;-48
2022/08/21 06:06:03;;;;;;;4.32;2.10;;;16.00;99.90;;;;;;5087484;28;20059;-48
2022/08/21 06:08:30;;;;;;;3.53;2.25;;;16.10;99.90;;;;;;5081282;28;20043;-47
2022/08/21 06:11:00;;;;;;;5.75;2.38;;;16.30;99.90;;;;;;5095118;28;20113;-48
2022/08/21 06:13:27;;;;;;;5.03;2.60;;;16.40;99.90;;;;;;5094195;28;20077;-47
2022/08/21 06:16:07;;;;;;;;;;;16.50;99.90;;;;;;5095461;28;20040;-49
2022/08/21 06:18:35;;;;;;;2.50;2.00;;;16.60;99.90;;;;;;5079379;28;20383;-48
2022/08/21 06:21:03;;;;;;;2.67;2.10;;;16.60;99.90;;;;;;5086118;28;20446;-48
2022/08/21 06:23:30;;;;;;;5.55;2.90;;;16.80;99.90;;;;;;5074185;28;20033;-48
2022/08/21 06:25:59;;;;;;;6.38;3.40;;;16.80;99.90;;;;;;5086128;28;20040;-48
2022/08/21 06:28:26;;;;;;;4.72;3.03;;;17.00;99.90;;;;;;5076918;28;20052;-48
2022/08/21 06:30:53;;;;;;;4.22;2.20;;;17.10;99.90;;;;;;5087920;28;20051;-48
2022/08/21 06:33:20;;;;;;;5.05;2.42;;;17.30;99.90;;;;;;5082562;28;20055;-49
2022/08/21 06:35:47;;;;;;;2.63;2.25;;;17.40;99.90;;;;;;5093962;28;20047;-48
2022/08/21 06:38:14;;;;;;;3.97;2.75;;;17.50;99.90;;;;;;5075842;28;20063;-48
2022/08/21 06:40:41;;;;;;;3.17;2.50;;;17.60;99.90;;;;;;5075303;28;20040;-48
2022/08/21 06:43:15;;;;;;;3.33;2.13;;;17.70;99.90;;;;;;5078961;28;20048;-48
2022/08/21 06:45:43;;;;;;;4.40;2.90;;;17.70;99.90;;;;;;5074864;28;20461;-48
2022/08/21 06:48:09;;;;;;;;;;;17.40;99.90;;;;;;5094040;28;20093;-49
2022/08/21 06:50:41;;;;;;;2.88;2.53;;;17.40;99.90;;;;;;5091569;28;19920;-48
2022/08/21 06:53:12;;;;;;;3.78;2.85;;;17.40;99.90;;;;;;5087897;28;20036;-48
2022/08/21 06:55:40;;;;;;;2.80;2.42;;;17.60;99.90;;;;;;5093746;28;20044;-48
2022/08/21 06:58:06;;;;;;;5.40;2.50;;;17.70;99.90;;;;;;5089180;28;20036;-48
2022/08/21 07:00:35;;;;;;;3.70;2.38;;;18.00;99.90;;;;;;5083499;28;20102;-48
2022/08/21 07:03:02;;;;;;;3.58;2.50;;;18.30;99.90;;;;;;5083975;28;20093;-48
2022/08/21 07:05:29;;;;;;;2.95;2.55;;;18.30;99.90;;;;;;5083722;28;20040;-48
2022/08/21 07:07:57;;;;;;;4.35;2.88;;;18.20;99.90;;;;;;5073035;28;20057;-48
2022/08/21 07:10:27;;;;;;;5.40;2.80;;;18.10;99.90;;;;;;5091698;28;20048;-48
2022/08/21 07:12:54;;;;;;;2.78;2.33;;;18.10;99.90;;;;;;5076460;28;20413;-48
2022/08/21 07:15:31;;;;;;;3.92;3.08;;;18.10;99.90;;;;;;5053256;28;20546;-48
2022/08/21 07:17:58;;;;;;;4.18;2.63;;;18.20;99.90;;;;;;5052342;28;20551;-49
2022/08/21 07:20:27;;;;;;;4.50;3.17;;;18.10;99.90;;;;;;5088477;28;20044;-48
2022/08/21 07:22:54;;;;;;;4.88;3.17;;;18.30;99.90;;;;;;5072623;28;20036;-48
2022/08/21 07:25:21;;;;;;;3.42;2.97;;;18.60;99.90;;;;;;5068800;28;20041;-48
2022/08/21 07:27:48;;;;;;;4.13;3.08;;;18.60;99.90;;;;;;5061963;28;20041;-48
2022/08/21 07:30:14;;;;;;;2.70;2.50;;;18.50;99.90;;;;;;5088332;28;20040;-49
2022/08/21 07:32:41;;;;;;;4.03;2.75;;;18.60;99.90;;;;;;5093400;28;20040;-48
2022/08/21 07:35:08;;;;;;;3.05;2.63;;;18.60;99.90;;;;;;5075343;28;20040;-49
2022/08/21 07:37:34;;;;;;;2.97;2.63;;;18.70;99.90;;;;;;5080652;28;20489;-48
2022/08/21 07:40:02;;;;;;;3.40;2.30;;;18.60;99.90;;;;;;5072838;28;20040;-49
2022/08/21 07:42:29;;;;;;;4.68;2.60;;;18.80;99.90;;;;;;5061317;28;20060;-50
2022/08/21 07:44:56;;;;;;;3.53;2.97;;;19.00;99.90;;;;;;5069989;28;20043;-48
2022/08/21 07:47:23;;;;;;;3.22;2.65;;;18.90;99.90;;;;;;5070115;28;20044;-47
2022/08/21 07:50:09;;;;;;;2.95;2.40;;;19.10;99.90;;;;;;5068886;28;20086;-48
2022/08/21 07:52:36;;;;;;;4.43;2.17;;;19.30;99.90;;;;;;5072379;28;20068;-46
2022/08/21 07:55:04;;;;;;;3.38;2.20;;;19.40;99.90;;;;;;5066592;28;20040;-48
2022/08/21 07:57:32;;;;;;;2.60;2.40;;;19.60;99.90;;;;;;5067639;28;20052;-48
2022/08/21 07:59:59;;;;;;;3.63;2.58;;;19.70;99.90;;;;;;5072690;28;20045;-48
2022/08/21 08:02:29;;;;;;;2.55;2.35;;;19.70;99.90;;;;;;5074265;28;20048;-47
2022/08/21 08:05:09;;;;;;;4.50;2.83;;;19.80;99.90;;;;;;5074437;28;20043;-49
2022/08/21 08:07:35;;;;;;;3.35;2.47;;;19.80;99.90;;;;;;5068341;28;20504;-48
2022/08/21 08:10:03;;;;;;;3.55;2.40;;;19.90;99.90;;;;;;5076497;28;20036;-48
2022/08/21 08:12:30;;;;;;;2.30;2.10;;;19.70;99.90;;;;;;5073880;28;20044;-48
2022/08/21 08:14:59;;;;;;;5.35;2.42;;;19.80;99.90;;;;;;5071528;28;20048;-48
2022/08/21 08:17:26;;;;;;;3.55;2.25;;;20.10;99.90;;;;;;5065472;28;20032;-48
2022/08/21 08:19:54;;;;;;;2.50;2.30;;;20.30;99.90;;;;;;5061532;28;20407;-47
2022/08/21 08:22:25;;;;;;;2.58;2.10;;;20.40;99.90;;;;;;5073435;28;20037;-48
2022/08/21 08:24:52;;;;;;;4.10;2.13;;;20.50;99.90;;;;;;5071263;28;20041;-48
2022/08/21 08:27:20;;;;;;;2.85;2.13;;;20.40;99.90;;;;;;5074484;28;20086;-48
2022/08/21 08:29:47;;;;;;;2.53;1.85;;;20.50;99.90;;;;;;5070901;28;20044;-48
2022/08/21 08:32:14;;;;;;;3.00;2.20;;;20.70;99.90;;;;;;5071416;28;20047;-48
2022/08/21 08:34:41;;;;;;;2.83;2.53;;;20.80;99.90;;;;;;5071457;28;20045;-47
2022/08/21 08:37:09;;;;;;;3.95;2.08;;;20.90;99.90;;;;;;5066762;28;20041;-49
2022/08/21 08:39:36;;;;;;;5.78;2.20;;;21.00;99.90;;;;;;5067291;28;20110;-47
2022/08/21 08:42:09;;;;;;;2.08;1.88;;;21.00;99.90;;;;;;5060554;28;20045;-48
2022/08/21 08:45:04;;;;;;;2.28;1.95;;;21.00;99.90;;;;;;5049932;28;20086;-49
2022/08/21 08:47:34;;;;;;;2.83;1.92;;;20.90;99.90;;;;;;5063060;28;20078;-47
2022/08/21 08:50:06;;;;;;;2.25;1.98;;;20.70;99.90;;;;;;5093271;22;20052;-47
2022/08/21 08:52:36;;;;;;;2.53;1.90;;;20.70;99.90;;;;;;5086080;28;20054;-47
2022/08/21 08:55:08;;;;;;;3.45;2.85;;;20.80;99.90;;;;;;5094391;28;20040;-47
2022/08/21 08:57:37;;;;;;;4.03;1.73;;;21.10;99.90;;;;;;5100058;28;20055;-46
2022/08/21 09:00:11;;;;;;;2.53;1.80;;;21.50;99.90;;;;;;5108076;28;20035;-47
2022/08/21 09:02:45;;;;;;;7.57;2.00;;;21.50;99.90;;;;;;5083425;28;20036;-47
2022/08/21 09:05:49;;;;;;;3.63;2.28;;;21.50;99.90;;;;;;5082681;28;20110;-46
2022/08/21 09:08:16;;;;;;;3.88;1.90;;;21.60;99.90;;;;;;5111791;28;20096;-47
2022/08/21 09:11:26;;;;;;;7.25;2.38;;;21.80;99.90;;;;;;5111164;28;20592;-47
2022/08/21 09:14:29;;;;;;;2.40;1.70;;;22.00;99.90;;;;;;5111732;28;20039;-48
2022/08/21 09:17:10;;;;;;;8.20;2.40;;;22.20;99.90;;;;;;5086642;28;20381;-47
2022/08/21 09:19:59;;;;;;;1.60;1.50;;;22.30;99.90;;;;;;5095806;28;20088;-47
2022/08/21 09:22:36;;;;;;;;;;;22.20;99.90;;;;;;5112126;28;20047;-48
2022/08/21 09:25:32;;;;;;;1.75;1.60;;;22.30;99.90;;;;;;5111506;28;19920;-47
2022/08/21 09:27:58;;;;;;;2.50;1.55;;;22.40;99.90;;;;;;5093970;28;20040;-48
2022/08/21 09:30:29;;;;;;;2.15;1.52;;;22.60;99.90;;;;;;5091383;28;20040;-48
2022/08/21 09:32:56;;;;;;;3.15;1.90;;;22.70;99.90;;;;;;5091574;28;20504;-47
2022/08/21 09:35:24;;;;;;;2.00;1.85;;;22.80;99.90;;;;;;5087457;28;20072;-48
2022/08/21 09:38:05;;;;;;;1.73;1.48;;;23.10;99.90;;;;;;5111447;28;20043;-47
2022/08/21 09:40:47;;;;;;;2.08;1.80;;;23.20;99.90;;;;;;5102659;28;20032;-47
2022/08/21 09:43:17;;;;;;;1.65;1.50;;;23.30;99.90;;;;;;5108835;28;20039;-47
2022/08/21 09:45:45;;;;;;;2.25;1.70;;;23.40;99.90;;;;;;5109953;28;20053;-48
2022/08/21 09:48:20;;;;;;;1.63;1.52;;;23.30;99.90;;;;;;5111318;28;20047;-47
2022/08/21 09:50:53;;;;;;;3.15;1.70;;;23.10;99.90;;;;;;5080427;28;20035;-47
2022/08/21 09:53:23;;;;;;;3.85;1.80;;;23.00;99.90;;;;;;5111096;28;20041;-47
2022/08/21 09:58:43;;;;;;;3.13;1.70;;;23.00;99.90;;;;;;5098880;28;20491;-47
2022/08/21 10:01:19;;;;;;;2.78;1.90;;;23.10;99.90;;;;;;5089797;28;20040;-47
2022/08/21 10:04:01;;;;;;;2.30;1.63;;;23.30;99.90;;;;;;5093575;28;20097;-48
2022/08/21 10:06:29;;;;;;;2.67;1.50;;;23.20;99.90;;;;;;5109326;28;20063;-48
2022/08/21 10:09:12;;;;;;;1.67;1.52;;;23.10;99.90;;;;;;5062706;28;20028;-48
2022/08/21 10:12:06;;;;;;;3.38;2.00;;;23.30;99.90;;;;;;5082591;28;20670;-47
2022/08/21 10:15:08;;;;;;;2.50;1.50;;;23.40;99.90;;;;;;5082935;28;20036;-48
2022/08/21 10:17:49;;;;;;;2.38;1.33;;;23.50;99.90;;;;;;5079448;28;20041;-47
2022/08/21 10:20:48;;;;;;;2.65;1.67;;;23.50;99.90;;;;;;5081238;28;20052;-46
2022/08/21 10:23:27;;;;;;;3.45;1.55;;;23.40;99.90;;;;;;5042311;28;20070;-46
2022/08/21 10:26:01;;;;;;;3.72;1.35;;;23.50;99.90;;;;;;5095283;28;20047;-49
2022/08/21 10:28:47;;;;;;;1.90;1.27;;;23.70;99.90;;;;;;5089376;28;20093;-46
2022/08/21 10:31:38;;;;;;;2.65;1.05;;;23.90;99.90;;;;;;5104686;28;20043;-45
2022/08/21 10:34:19;;;;;;;1.55;1.30;;;24.00;99.90;;;;;;5091855;28;20082;-48
2022/08/21 10:37:06;;;;;;;1.92;1.10;;;24.00;99.90;;;;;;5070352;28;20039;-46
2022/08/21 10:39:40;;;;;;;2.60;1.30;;;24.30;99.90;;;;;;5081059;28;20043;-45
2022/08/21 10:42:27;;;;;;;4.05;1.25;;;24.40;99.90;;;;;;5095305;28;20040;-46
2022/08/21 10:45:09;;;;;;;2.10;1.17;;;24.50;99.90;;;;;;5096285;28;20055;-46
2022/08/21 10:47:52;;;;;;;4.45;1.38;;;24.70;99.90;;;;;;5095077;28;20043;-45
2022/08/21 10:50:39;;;;;;;3.97;1.33;;;24.80;99.90;;;;;;5099108;28;20044;-46
2022/08/21 10:53:30;;;;;;;1.45;1.35;;;24.60;99.90;;;;;;5092961;28;20047;-46
2022/08/21 10:56:16;;;;;;;1.55;1.30;;;25.00;99.90;;;;;;5096613;28;20040;-48
2022/08/21 10:58:46;;;;;;;3.05;1.40;;;25.50;99.90;;;;;;5081261;28;20388;-46
2022/08/21 11:01:31;;;;;;;2.35;1.35;;;25.60;99.90;;;;;;5097386;28;20055;-46
2022/08/21 11:04:11;;;;;;;2.55;1.30;;;25.80;99.00;;;;;;5102628;28;20052;-45
2022/08/21 11:06:46;;;;;;;2.17;1.20;;;25.90;99.90;;;;;;5106141;28;20110;-46
2022/08/21 11:09:17;;;;;;;2.80;1.48;;;25.90;99.90;;;;;;5090232;28;20048;-45
2022/08/21 11:11:56;;;;;;;1.23;1.10;;;26.00;99.50;;;;;;5098055;28;20437;-46
2022/08/21 11:15:11;;;;;;;4.55;1.50;;;26.30;99.90;;;;;;5092353;28;20048;-46
2022/08/21 11:18:16;;;;;;;1.80;1.38;;;26.30;99.90;;;;;;5094451;28;20044;-46
2022/08/21 11:20:54;;;;;;;3.60;1.60;;;25.70;99.90;;;;;;5101154;28;20043;-45
2022/08/21 11:23:33;;;;;;;3.65;1.40;;;24.70;99.90;;;;;;5108678;28;20039;-46
2022/08/21 11:26:10;;;;;;;5.70;1.52;;;24.10;99.90;;;;;;5075485;28;20522;-46
2022/08/21 11:28:54;;;;;;;1.30;1.15;;;23.50;99.90;;;;;;5087822;28;20044;-45
2022/08/21 11:31:33;;;;;;;3.08;1.50;;;23.00;99.90;;;;;;5102203;28;20051;-47
2022/08/21 11:34:37;;;;;;;3.28;1.48;;;22.60;99.90;;;;;;5096805;28;20071;-46
2022/08/21 11:37:13;;;;;;;3.50;1.50;;;22.40;99.90;;;;;;5083382;28;20037;-46
2022/08/21 11:40:05;;;;;;;3.58;1.48;;;22.30;99.90;;;;;;5102597;28;20044;-46
2022/08/21 11:43:16;;;;;;;2.60;1.30;;;22.20;99.90;;;;;;5091268;28;20047;-46
2022/08/21 11:45:50;;;;;;;3.33;2.05;;;22.60;99.90;;;;;;5087920;28;20488;-45
2022/08/21 11:48:58;;;;;;;2.03;1.33;;;22.80;99.90;;;;;;5102951;28;20047;-48
2022/08/21 11:51:40;;;;;;;1.85;1.23;;;23.50;99.90;;;;;;5090630;28;20036;-46
2022/08/21 11:54:28;;;;;;;3.08;1.45;;;24.10;99.90;;;;;;5087563;28;20028;-46
2022/08/21 11:57:03;;;;;;;3.47;1.35;;;24.50;99.90;;;;;;5085936;28;20040;-47
2022/08/21 11:59:44;;;;;;;3.28;1.55;;;24.80;99.90;;;;;;5070157;28;20438;-47
2022/08/21 12:02:17;;;;;;;2.05;1.30;;;24.90;99.90;;;;;;5088237;28;20051;-46
2022/08/21 12:04:55;;;;;;;2.72;1.70;;;25.00;99.90;;;;;;5080268;28;20040;-49
2022/08/21 12:07:33;;;;;;;2.88;1.48;;;24.90;99.90;;;;;;5075953;28;20035;-46
2022/08/21 12:10:04;;;;;;;3.90;1.42;;;24.60;99.90;;;;;;5079214;28;20044;-47
2022/08/21 12:12:34;;;;;;;3.28;1.55;;;24.40;99.90;;;;;;5081766;28;20039;-47
2022/08/21 12:15:16;;;;;;;2.35;1.92;;;24.40;99.70;;;;;;5080617;28;20029;-47
2022/08/21 12:18:06;;;;;;;2.78;1.33;;;24.60;99.90;;;;;;5087281;28;20043;-46
2022/08/21 12:20:43;;;;;;;4.68;1.77;;;24.20;99.90;;;;;;5092964;28;20384;-48
2022/08/21 12:23:24;;;;;;;4.40;1.30;;;23.80;99.90;;;;;;5091951;28;20051;-47
2022/08/21 12:26:17;;;;;;;3.22;1.50;;;24.10;99.90;;;;;;5092938;28;20051;-47
2022/08/21 12:28:44;;;;;;;1.38;1.20;;;24.40;99.90;;;;;;5091660;28;20044;-48
2022/08/21 12:31:18;;;;;;;;;;;24.70;97.80;;;;;;5092283;28;20048;-48
2022/08/21 12:33:53;;;;;;;3.67;1.60;;;24.70;96.20;;;;;;5097863;28;19920;-47
2022/08/21 12:36:25;;;;;;;1.60;1.33;;;24.80;97.20;;;;;;5104904;28;20047;-46
2022/08/21 12:39:00;;;;;;;2.00;1.65;;;24.90;96.00;;;;;;5094285;28;20044;-48
2022/08/21 12:41:33;;;;;;;1.92;1.50;;;25.10;97.40;;;;;;5095693;28;20043;-46
2022/08/21 12:44:07;;;;;;;1.75;1.30;;;25.30;97.50;;;;;;5095853;28;20047;-46
2022/08/21 12:46:46;;;;;;;4.10;1.50;;;25.30;97.50;;;;;;5094436;28;20039;-46
2022/08/21 12:49:27;;;;;;;3.63;1.83;;;25.40;98.10;;;;;;5097096;28;20446;-48
2022/08/21 12:52:00;;;;;;;1.95;1.35;;;25.30;98.60;;;;;;5096442;28;20044;-46
2022/08/21 12:54:37;;;;;;;1.73;1.42;;;25.30;97.60;;;;;;5073408;28;20051;-48
2022/08/21 12:57:06;;;;;;;5.65;1.77;;;25.40;97.40;;;;;;5091818;28;20048;-48
2022/08/21 12:59:37;;;;;;;7.40;1.52;;;25.50;96.70;;;;;;5088787;28;20070;-46
2022/08/21 13:02:16;;;;;;;2.60;1.40;;;25.60;97.80;;;;;;5087629;28;20047;-47
2022/08/21 13:04:44;;;;;;;2.20;1.58;;;25.70;97.20;;;;;;5089310;28;20040;-47
2022/08/21 13:07:15;;;;;;;2.75;1.50;;;25.80;97.20;;;;;;5091412;28;20036;-48
2022/08/21 13:09:50;;;;;;;2.60;1.55;;;25.90;96.00;;;;;;5088302;28;20123;-47
2022/08/21 13:12:21;;;;;;;3.88;1.65;;;25.80;95.60;;;;;;5101834;28;20040;-48
2022/08/21 13:14:49;;;;;;;4.00;1.50;;;25.70;94.50;;;;;;5095717;28;20036;-47
2022/08/21 13:17:19;;;;;;;3.17;1.80;;;25.90;96.90;;;;;;5093796;28;20044;-46
2022/08/21 13:20:02;;;;;;;6.18;1.70;;;25.80;95.40;;;;;;5093090;28;20047;-46